Time;durP1;ratioP1;P1;durP2;ratioP2;P2;SDS_P1;SDS_P2;PMS_P1;PMS_P2;Temp;Humidity;BMP_temperature;BMP_pressure;BME280_temperature;BME280_humidity;BME280_pressure;Samples;Min_cycle;Max_cycle;Signal;HPM_P1;HPM_P2
2022/06/02 00:00:26;;;;;;;9.93;4.50;;;;;;;21.81;62.38;99660.00;3154181;28;20124;-70
2022/06/02 00:02:05;;;;;;;7.53;4.10;;;;;;;21.96;62.47;99684.22;3154403;28;20048;-70
2022/06/02 00:03:44;;;;;;;6.03;3.80;;;;;;;22.00;62.38;99696.19;3154519;28;20094;-70
2022/06/02 00:05:23;;;;;;;14.60;4.78;;;;;;;21.80;62.31;99663.63;3154152;28;20112;-68
2022/06/02 00:07:04;;;;;;;7.43;4.55;;;;;;;21.72;62.68;99644.97;3154227;28;20093;-69
2022/06/02 00:08:48;;;;;;;8.98;4.30;;;;;;;21.88;62.65;99676.16;3154374;28;20090;-70
2022/06/02 00:10:29;;;;;;;12.02;4.35;;;;;;;22.03;62.59;99695.91;3154024;28;20051;-69
2022/06/02 00:12:08;;;;;;;10.60;4.07;;;;;;;21.83;62.66;99667.81;3154259;28;20048;-68
2022/06/02 00:13:47;;;;;;;9.55;4.53;;;;;;;21.87;62.59;99673.66;3154153;28;20326;-68
2022/06/02 00:15:26;;;;;;;12.55;4.15;;;;;;;21.88;62.51;99681.44;3154143;28;20520;-69
2022/06/02 00:17:02;;;;;;;7.25;3.92;;;;;;;21.86;62.46;99674.63;3154465;28;20048;-68
2022/06/02 00:18:45;;;;;;;9.20;4.63;;;;;;;21.96;62.44;99697.47;3154246;28;20555;-69
2022/06/02 00:20:21;;;;;;;9.55;4.03;;;;;;;21.93;62.82;99696.94;3151341;28;20054;-68
2022/06/02 00:21:58;;;;;;;7.55;4.68;;;;;;;21.83;62.56;99682.84;3153878;28;20593;-69
2022/06/02 00:23:46;;;;;;;10.02;4.03;;;;;;;21.86;62.59;99686.09;3154155;28;20108;-69
2022/06/02 00:25:27;;;;;;;14.38;4.60;;;;;;;21.84;62.58;99684.56;3153907;28;20239;-69
2022/06/02 00:27:10;;;;;;;10.38;4.55;;;;;;;21.88;62.56;99700.00;3154024;28;20548;-69
2022/06/02 00:28:53;;;;;;;6.78;4.25;;;;;;;21.51;62.43;99641.69;3143486;28;20142;-69
2022/06/02 00:30:30;;;;;;;12.68;4.30;;;;;;;21.42;62.59;99645.19;3151235;28;20105;-69
2022/06/02 00:32:09;;;;;;;14.93;4.53;;;;;;;21.66;62.57;99676.50;3153120;28;20048;-68
2022/06/02 00:34:02;;;;;;;6.45;4.20;;;;;;;21.63;62.28;99682.09;3154033;28;20085;-68
2022/06/02 00:35:42;;;;;;;10.45;4.13;;;;;;;21.39;62.15;99640.19;3154185;28;20059;-68
2022/06/02 00:37:21;;;;;;;9.20;4.32;;;;;;;21.47;62.59;99664.94;3147482;28;20536;-68
2022/06/02 00:38:54;;;;;;;10.90;4.10;;;;;;;21.36;62.13;99638.66;3153787;28;20043;-68
2022/06/02 00:40:28;;;;;;;8.70;3.85;;;;;;;21.49;62.20;99659.53;3153590;28;20512;-70
2022/06/02 00:42:18;;;;;;;10.18;4.20;;;;;;;21.75;62.17;99702.16;3153906;28;20299;-69
2022/06/02 00:44:11;;;;;;;9.85;3.92;;;;;;;21.79;62.31;99714.97;3154171;28;20085;-71
2022/06/02 00:45:46;;;;;;;10.23;4.40;;;;;;;21.76;62.35;99707.28;3153973;28;20047;-70
2022/06/02 00:47:37;;;;;;;11.07;4.22;;;;;;;21.44;62.66;99677.66;3153569;28;20052;-70
2022/06/02 00:49:15;;;;;;;14.40;4.25;;;;;;;21.27;62.66;99653.53;3153730;28;20582;-69
2022/06/02 00:50:54;;;;;;;10.70;4.40;;;;;;;21.41;62.81;99686.72;3154041;28;20055;-68
2022/06/02 00:52:32;;;;;;;7.50;4.20;;;;;;;21.42;62.56;99684.94;3153721;28;20056;-69
2022/06/02 00:58:32;;;;;;;13.02;4.07;;;;;;;21.46;62.48;99689.78;3153777;28;20052;-68
2022/06/02 01:00:12;;;;;;;6.85;4.10;;;;;;;21.55;62.83;99701.34;3153723;28;20505;-68
2022/06/02 01:01:44;;;;;;;6.05;3.63;;;;;;;21.37;62.66;99671.25;3153610;28;20557;-68
2022/06/02 01:03:20;;;;;;;9.68;4.55;;;;;;;21.57;62.64;99699.41;3153760;28;20051;-69
2022/06/02 01:04:54;;;;;;;7.43;4.30;;;;;;;21.45;62.35;99680.19;3153743;28;20048;-70
2022/06/02 01:06:41;;;;;;;8.75;3.88;;;;;;;21.51;62.29;99700.81;3153515;28;20064;-69
2022/06/02 01:08:30;;;;;;;6.72;3.95;;;;;;;21.39;62.70;99675.44;3153614;28;20109;-69
2022/06/02 01:10:31;;;;;;;12.98;4.53;;;;;;;21.54;62.50;99700.53;3153462;28;20069;-69
2022/06/02 01:12:18;;;;;;;9.30;4.20;;;;;;;21.35;62.83;99674.88;3153450;28;20101;-69
2022/06/02 01:14:16;;;;;;;11.18;4.25;;;;;;;21.28;62.50;99662.31;3153523;28;20052;-69
2022/06/02 01:16:00;;;;;;;14.63;4.40;;;;;;;21.40;62.46;99682.41;3153898;28;20464;-70
2022/06/02 01:17:45;;;;;;;8.82;4.22;;;;;;;21.34;62.59;99661.75;3153523;28;20052;-70
2022/06/02 01:19:49;;;;;;;9.25;3.78;;;;;;;21.33;62.69;99660.09;3141023;28;20052;-70
2022/06/02 01:21:51;;;;;;;10.37;5.00;;;;;;;21.14;62.55;99631.81;3143201;28;20130;-69
2022/06/02 01:23:51;;;;;;;9.68;4.63;;;;;;;21.43;62.53;99679.47;3153539;28;20048;-68
2022/06/02 01:25:53;;;;;;;8.20;4.30;;;;;;;21.44;62.52;99678.50;3153047;28;20127;-68
2022/06/02 01:27:58;;;;;;;11.23;3.90;;;;;;;21.26;62.52;99640.44;3153439;28;20422;-69
2022/06/02 01:29:50;;;;;;;6.80;3.90;;;;;;;21.16;62.73;99629.03;3129306;28;20118;-69
2022/06/02 01:31:34;;;;;;;10.73;4.15;;;;;;;21.19;62.44;99637.53;3153388;28;20529;-69
2022/06/02 01:33:12;;;;;;;9.95;4.32;;;;;;;21.19;62.73;99637.53;3153252;28;20125;-69
2022/06/02 01:34:58;;;;;;;9.30;4.22;;;;;;;21.43;62.50;99673.34;3153146;28;20414;-68
2022/06/02 01:36:38;;;;;;;6.55;3.58;;;;;;;21.06;62.71;99624.59;3150040;28;20045;-69
2022/06/02 01:38:17;;;;;;;7.18;4.10;;;;;;;21.37;62.61;99671.25;3151753;28;20051;-69
2022/06/02 01:40:07;;;;;;;11.98;3.70;;;;;;;21.23;62.45;99657.44;3152296;28;20052;-67
2022/06/02 01:41:51;;;;;;;8.15;3.40;;;;;;;21.29;62.32;99672.75;3148135;28;20105;-68
2022/06/02 01:43:33;;;;;;;9.50;3.53;;;;;;;20.95;62.04;99627.38;3147568;28;20059;-68
2022/06/02 01:45:13;;;;;;;8.27;3.65;;;;;;;21.10;62.45;99659.56;3148088;28;20129;-68
2022/06/02 01:46:52;;;;;;;8.50;3.38;;;;;;;21.10;61.97;99665.69;3147803;28;20113;-68
2022/06/02 01:48:31;;;;;;;9.23;4.10;;;;;;;21.14;61.96;99675.00;3148046;28;20051;-69
2022/06/02 01:50:18;;;;;;;9.73;4.28;;;;;;;21.02;61.90;99662.88;3148731;28;20158;-70
2022/06/02 01:52:00;;;;;;;7.82;4.30;;;;;;;21.10;61.97;99678.91;3148277;28;20044;-68
2022/06/02 01:53:42;;;;;;;9.38;4.22;;;;;;;21.09;61.89;99671.13;3148202;28;20124;-69
2022/06/02 01:55:36;;;;;;;8.40;4.53;;;;;;;20.74;61.85;99621.38;3148106;28;20052;-69
2022/06/02 01:57:22;;;;;;;7.85;3.92;;;;;;;20.70;61.71;99633.19;3148695;28;20048;-70
2022/06/02 01:59:09;;;;;;;9.10;4.20;;;;;;;20.61;61.79;99630.41;3147925;28;20055;-70
2022/06/02 02:00:44;;;;;;;11.98;4.63;;;;;;;20.83;61.65;99669.03;3148410;28;20513;-68
2022/06/02 02:02:26;;;;;;;10.40;3.95;;;;;;;20.50;62.00;99627.00;3146199;28;20056;-69
2022/06/02 02:04:18;;;;;;;6.93;3.50;;;;;;;20.67;62.19;99671.34;3135654;28;20060;-68
2022/06/02 02:06:04;;;;;;;7.93;4.22;;;;;;;20.73;62.23;99684.03;3135852;28;20543;-68
2022/06/02 02:07:43;;;;;;;7.85;3.60;;;;;;;20.27;62.44;99618.50;3148200;28;20559;-69
2022/06/02 02:09:24;;;;;;;9.38;3.28;;;;;;;20.54;62.71;99666.31;3148771;28;20058;-69
2022/06/02 02:11:09;;;;;;;7.85;3.40;;;;;;;20.46;62.50;99645.81;3148611;28;20146;-68
2022/06/02 02:12:56;;;;;;;7.53;3.08;;;;;;;20.63;62.53;99684.03;3147839;28;20056;-68
2022/06/02 02:14:43;;;;;;;6.95;3.45;;;;;;;20.54;62.74;99682.19;3147866;28;20475;-69
2022/06/02 02:16:24;;;;;;;5.30;3.08;;;;;;;20.59;62.53;99680.00;3142283;28;20064;-69
2022/06/02 02:18:13;;;;;;;6.28;3.17;;;;;;;20.53;62.87;99677.91;3152724;28;20047;-69
2022/06/02 02:19:56;;;;;;;8.98;3.92;;;;;;;20.26;62.94;99643.25;3159401;28;20048;-69
2022/06/02 02:21:38;;;;;;;3.88;2.58;;;;;;;20.49;63.25;99687.03;3152849;28;21017;-69
2022/06/02 02:23:20;;;;;;;6.70;3.22;;;;;;;20.42;62.90;99670.03;3152587;28;20054;-69
2022/06/02 02:25:05;;;;;;;9.82;3.60;;;;;;;20.37;63.05;99666.94;3152909;28;20109;-69
2022/06/02 02:26:46;;;;;;;8.20;3.40;;;;;;;20.25;62.87;99641.59;3152708;28;20048;-69
2022/06/02 02:28:31;;;;;;;8.88;3.65;;;;;;;20.16;62.96;99622.09;3150265;28;20533;-70
2022/06/02 02:30:07;;;;;;;7.78;2.88;;;;;;;20.33;62.93;99661.09;3147153;28;20605;-70
2022/06/02 02:31:46;;;;;;;8.88;3.47;;;;;;;20.32;63.30;99664.72;3140505;28;20048;-70
2022/06/02 02:33:31;;;;;;;10.52;3.45;;;;;;;20.38;63.06;99673.91;3140426;28;20569;-70
2022/06/02 02:35:11;;;;;;;5.40;3.42;;;;;;;20.47;62.94;99689.00;3140515;28;20155;-70
2022/06/02 02:36:51;;;;;;;11.18;3.50;;;;;;;20.15;63.21;99647.69;3144661;28;20063;-69
2022/06/02 02:38:37;;;;;;;9.73;2.95;;;;;;;20.01;63.24;99613.69;3140307;28;20484;-68
2022/06/02 02:40:14;;;;;;;7.22;2.72;;;;;;;20.25;63.20;99660.94;3140283;28;20496;-70
2022/06/02 02:41:51;;;;;;;6.93;3.33;;;;;;;20.05;63.35;99636.22;3152528;28;20056;-69
2022/06/02 02:43:27;;;;;;;7.13;3.30;;;;;;;20.11;63.52;99648.91;3152515;28;20225;-69
2022/06/02 02:45:09;;;;;;;8.82;3.42;;;;;;;20.25;63.28;99670.66;3152314;28;20048;-69
2022/06/02 02:46:52;;;;;;;5.63;3.33;;;;;;;19.95;63.49;99627.44;3152585;28;20105;-69
2022/06/02 02:48:35;;;;;;;7.07;3.70;;;;;;;20.17;63.75;99677.47;3152596;28;20063;-69
2022/06/02 02:50:13;;;;;;;5.82;3.20;;;;;;;20.14;63.65;99672.47;3152486;28;20789;-69
2022/06/02 02:51:53;;;;;;;6.97;3.22;;;;;;;20.23;63.67;99686.66;3152695;28;20513;-69
2022/06/02 02:53:32;;;;;;;8.50;3.90;;;;;;;19.93;63.60;99639.94;3152608;28;20166;-69
2022/06/02 02:55:09;;;;;;;5.25;2.95;;;;;;;20.07;63.47;99654.63;3153187;28;20047;-69
2022/06/02 02:56:48;;;;;;;9.85;3.28;;;;;;;20.25;63.58;99687.38;3155396;28;20055;-70
2022/06/02 02:58:27;;;;;;;6.70;3.78;;;;;;;20.05;63.63;99664.47;3154911;28;20044;-70
2022/06/02 03:00:05;;;;;;;7.43;3.47;;;;;;;20.20;63.67;99690.44;3155261;28;20052;-69
2022/06/02 03:01:45;;;;;;;4.88;2.95;;;;;;;20.20;63.77;99690.44;3154845;28;20113;-70
2022/06/02 03:03:22;;;;;;;7.03;2.90;;;;;;;20.06;63.69;99671.44;3155412;28;20052;-70
2022/06/02 03:05:03;;;;;;;10.07;2.90;;;;;;;20.13;63.50;99677.88;3155253;28;20128;-70
2022/06/02 03:06:38;;;;;;;8.35;3.35;;;;;;;19.91;63.60;99640.09;3154903;28;20086;-70
2022/06/02 03:08:18;;;;;;;6.78;3.25;;;;;;;20.21;63.51;99696.56;3154755;28;20544;-70
2022/06/02 03:10:04;;;;;;;6.32;3.33;;;;;;;19.89;63.77;99647.31;3154742;28;20528;-70
2022/06/02 03:12:00;;;;;;;6.57;3.70;;;;;;;20.17;63.68;99692.47;3155081;28;20052;-70
2022/06/02 03:13:39;;;;;;;6.90;3.50;;;;;;;19.82;63.69;99645.31;3155268;28;20070;-69
2022/06/02 03:15:21;;;;;;;10.52;4.15;;;;;;;20.03;63.78;99677.84;3151847;28;20522;-70
2022/06/02 03:17:02;;;;;;;9.32;3.53;;;;;;;20.04;63.78;99674.22;3154954;28;20070;-69
2022/06/02 03:18:52;;;;;;;9.73;3.00;;;;;;;20.14;63.80;99693.63;3154505;28;20105;-69
2022/06/02 03:20:40;;;;;;;11.27;3.25;;;;;;;20.11;63.86;99682.44;3155126;28;20048;-68
2022/06/02 03:22:25;;;;;;;5.82;3.03;;;;;;;19.81;63.87;99638.38;3154831;28;20051;-69
2022/06/02 03:24:37;;;;;;;9.95;4.28;;;;;;;19.91;64.22;99660.41;3154966;28;20124;-70
2022/06/02 03:26:17;;;;;;;5.80;3.67;;;;;;;19.61;63.96;99622.41;3154855;28;20343;-70
2022/06/02 03:28:00;;;;;;;6.75;2.80;;;;;;;20.06;63.94;99692.59;3154625;28;20040;-69
2022/06/02 03:29:50;;;;;;;6.47;3.00;;;;;;;19.75;63.77;99645.00;3154897;28;20059;-69
2022/06/02 03:31:30;;;;;;;13.13;3.60;;;;;;;20.09;64.25;99705.56;3154758;28;20059;-70
2022/06/02 03:33:12;;;;;;;8.50;2.83;;;;;;;19.99;63.97;99679.06;3154521;28;20109;-70
2022/06/02 03:34:57;;;;;;;10.95;3.72;;;;;;;19.98;63.95;99682.69;3154490;28;20142;-70
2022/06/02 03:37:01;;;;;;;10.05;3.50;;;;;;;20.14;63.97;99709.47;3151281;28;20052;-69
2022/06/02 03:38:50;;;;;;;8.38;3.60;;;;;;;19.72;63.66;99638.19;3143861;28;20575;-69
2022/06/02 03:40:31;;;;;;;7.57;3.88;;;;;;;20.18;63.77;99710.88;3139117;28;20605;-68
2022/06/02 03:42:18;;;;;;;6.93;3.25;;;;;;;19.99;63.66;99676.41;3149670;28;20512;-70
2022/06/02 03:43:55;;;;;;;7.10;3.28;;;;;;;19.93;63.50;99658.44;3149397;28;20070;-70
2022/06/02 03:45:41;;;;;;;9.63;3.42;;;;;;;20.13;63.66;99694.56;3149661;28;20060;-70
2022/06/02 03:47:30;;;;;;;9.73;3.80;;;;;;;20.28;63.56;99707.44;3150983;28;20109;-70
2022/06/02 03:49:20;;;;;;;7.00;3.22;;;;;;;20.31;63.76;99705.34;3151023;28;20546;-69
2022/06/02 03:51:01;;;;;;;8.40;3.25;;;;;;;20.26;63.45;99693.50;3154099;28;20058;-69
2022/06/02 03:52:49;;;;;;;9.73;3.70;;;;;;;20.22;63.16;99685.00;3154590;28;20052;-69
2022/06/02 03:54:43;;;;;;;11.25;3.25;;;;;;;20.28;63.06;99694.19;3154610;28;20596;-69
2022/06/02 03:56:32;;;;;;;5.43;3.30;;;;;;;20.37;62.94;99709.25;3154370;28;20476;-70
2022/06/02 03:58:27;;;;;;;9.80;3.67;;;;;;;20.27;62.87;99695.19;3153983;28;20525;-71
2022/06/02 04:00:12;;;;;;;12.52;4.07;;;;;;;20.33;63.01;99697.28;3154234;28;20056;-70
2022/06/02 04:01:52;;;;;;;9.98;3.80;;;;;;;20.20;62.92;99674.56;3154316;28;20142;-70
2022/06/02 04:03:48;;;;;;;6.68;4.30;;;;;;;20.46;62.69;99713.75;3154498;28;20055;-69
2022/06/02 04:05:33;;;;;;;7.80;3.85;;;;;;;20.29;62.81;99680.00;3154432;28;20069;-70
2022/06/02 04:07:32;;;;;;;7.57;3.42;;;;;;;20.39;62.67;99696.75;3153184;28;20131;-70
2022/06/02 04:09:17;;;;;;;9.13;4.32;;;;;;;20.15;62.85;99658.25;3154235;28;20047;-68
2022/06/02 04:10:55;;;;;;;8.60;3.83;;;;;;;20.46;62.95;99700.53;3154230;28;20121;-69
2022/06/02 04:14:51;;;;;;;12.35;3.58;;;;;;;20.32;62.77;99687.66;3151536;28;20056;-69
2022/06/02 04:16:34;;;;;;;11.23;4.07;;;;;;;20.11;62.73;99650.72;3144943;28;20051;-69
2022/06/02 04:18:18;;;;;;;7.00;3.50;;;;;;;20.25;62.74;99662.75;3154183;28;20056;-69
2022/06/02 04:22:00;;;;;;;8.65;3.83;;;;;;;20.48;62.74;99689.81;3154276;28;20509;-69
2022/06/02 04:24:02;;;;;;;11.13;4.57;;;;;;;20.53;62.17;99690.25;3153035;28;20057;-69
2022/06/02 04:25:46;;;;;;;7.18;3.78;;;;;;;20.40;62.31;99667.50;3150515;28;20121;-70
2022/06/02 04:27:23;;;;;;;8.23;4.00;;;;;;;20.67;62.35;99713.69;3152480;28;20052;-72
2022/06/02 04:29:05;;;;;;;10.70;4.03;;;;;;;20.61;62.29;99695.72;3153998;28;20083;-69
2022/06/02 04:30:45;;;;;;;10.18;3.33;;;;;;;20.71;62.02;99711.63;3154034;28;20117;-68
2022/06/02 04:32:27;;;;;;;9.27;3.42;;;;;;;20.71;62.16;99711.63;3146270;28;20130;-69
2022/06/02 04:34:11;;;;;;;11.70;4.13;;;;;;;20.73;61.92;99710.50;3145827;28;20055;-68
2022/06/02 04:35:47;;;;;;;;;;;;;;;20.77;61.90;99719.84;3143563;28;20049;-69
2022/06/02 04:37:37;;;;;;;7.88;3.92;;;;;;;20.81;61.82;99723.88;3141041;28;19979;-70
2022/06/02 04:39:21;;;;;;;5.97;3.70;;;;;;;20.57;61.85;99679.28;3141619;28;20071;-74
2022/06/02 04:41:06;;;;;;;11.32;3.65;;;;;;;20.88;61.49;99718.88;3143832;28;20052;-67
2022/06/02 04:42:44;;;;;;;53.30;31.23;;;;;;;20.92;61.40;99724.75;3153139;28;20052;-67
2022/06/02 04:44:24;;;;;;;8.25;3.67;;;;;;;20.75;61.19;99697.13;3153402;28;20056;-64
2022/06/02 04:46:15;;;;;;;11.55;4.30;;;;;;;20.94;61.40;99714.84;3153676;28;20187;-71
2022/06/02 04:47:56;;;;;;;11.18;3.53;;;;;;;20.99;61.31;99726.69;3154072;28;20056;-71
2022/06/02 04:49:40;;;;;;;19.00;4.63;;;;;;;20.67;60.94;99669.56;3153919;28;20062;-71
2022/06/02 04:51:26;;;;;;;7.63;3.88;;;;;;;20.87;60.79;99696.03;3153916;28;20056;-77
2022/06/02 04:53:10;;;;;;;8.25;3.88;;;;;;;20.87;60.97;99685.44;3154020;28;20056;-75
2022/06/02 04:54:54;;;;;;;7.13;3.67;;;;;;;21.14;60.91;99727.13;3153892;28;20056;-73
2022/06/02 04:56:33;;;;;;;8.90;4.00;;;;;;;20.95;60.75;99692.72;3154002;28;20139;-77
2022/06/02 04:58:16;;;;;;;14.73;4.00;;;;;;;21.01;60.63;99687.69;3153544;28;20056;-74
2022/06/02 05:00:00;;;;;;;15.80;5.32;;;;;;;21.28;60.58;99724.06;3153398;28;20055;-76
2022/06/02 05:01:44;;;;;;;9.98;3.67;;;;;;;21.22;60.32;99721.97;3152922;28;20067;-77
2022/06/02 05:03:26;;;;;;;8.23;3.83;;;;;;;20.74;59.78;99642.56;3153403;28;20128;-74
2022/06/02 05:05:11;;;;;;;11.57;3.78;;;;;;;21.25;59.98;99728.81;3153623;28;20230;-77
2022/06/02 05:06:51;;;;;;;16.08;4.93;;;;;;;21.28;59.89;99732.00;3153416;28;20048;-72
2022/06/02 05:08:41;;;;;;;10.18;4.25;;;;;;;21.28;59.66;99721.41;3152268;28;20052;-75
2022/06/02 05:10:19;;;;;;;10.75;4.05;;;;;;;21.37;59.73;99729.53;3152585;28;20051;-75
2022/06/02 05:12:05;;;;;;;8.13;5.03;;;;;;;21.24;59.72;99693.56;3153131;28;20499;-75
2022/06/02 05:13:53;;;;;;;16.58;4.63;;;;;;;21.47;59.50;99728.53;3153300;28;20501;-76
2022/06/02 05:15:44;;;;;;;14.20;3.83;;;;;;;21.09;59.34;99655.25;3147755;28;20080;-76
2022/06/02 05:17:46;;;;;;;10.20;4.80;;;;;;;21.61;59.27;99729.09;3153436;28;20075;-75
2022/06/02 05:19:37;;;;;;;16.73;5.70;;;;;;;21.68;59.04;99727.53;3153097;28;20044;-74
2022/06/02 05:21:28;;;;;;;16.00;4.38;;;;;;;21.54;59.02;99692.56;3153103;28;20081;-73
2022/06/02 05:23:35;;;;;;;10.50;4.38;;;;;;;21.74;58.88;99716.38;3153436;28;20544;-76
2022/06/02 05:25:34;;;;;;;16.15;4.93;;;;;;;21.86;58.72;99725.84;3153316;28;20071;-74
2022/06/02 05:27:32;;;;;;;16.27;4.57;;;;;;;21.68;58.54;99674.53;3153298;28;20552;-78
2022/06/02 05:29:44;;;;;;;24.00;4.63;;;;;;;21.97;58.15;99711.56;3146573;28;20079;-70
2022/06/02 05:31:45;;;;;;;44.58;25.05;;;;;;;22.11;58.07;99726.19;3147591;28;20261;-68
2022/06/02 05:33:41;;;;;;;8.38;4.72;;;;;;;22.18;58.01;99725.50;3153209;28;20137;-68
2022/06/02 05:35:37;;;;;;;14.05;4.18;;;;;;;22.28;57.49;99725.44;3153021;28;20434;-69
2022/06/02 05:37:20;;;;;;;8.82;4.57;;;;;;;22.38;57.35;99725.41;3147104;28;20190;-72
2022/06/02 05:39:03;;;;;;;10.90;4.47;;;;;;;22.44;56.98;99727.47;3152133;28;20523;-73
2022/06/02 05:40:38;;;;;;;10.07;3.88;;;;;;;22.44;56.98;99712.38;3148326;28;20054;-73
2022/06/02 05:42:25;;;;;;;9.60;4.25;;;;;;;22.58;56.42;99726.97;3148883;28;20555;-76
2022/06/02 05:44:07;;;;;;;13.63;4.00;;;;;;;22.54;56.38;99712.34;3152879;28;20504;-74
2022/06/02 05:45:56;;;;;;;10.60;3.75;;;;;;;22.53;56.66;99696.56;3140997;28;20068;-73
2022/06/02 05:47:41;;;;;;;9.27;4.10;;;;;;;22.81;56.12;99729.22;3141494;28;20142;-69
2022/06/02 05:49:24;;;;;;;15.68;4.05;;;;;;;22.90;56.43;99721.19;3153042;28;20055;-74
2022/06/02 05:51:06;;;;;;;14.40;4.73;;;;;;;22.82;55.93;99707.81;3151671;28;20052;-65
2022/06/02 05:52:51;;;;;;;16.10;8.27;;;;;;;23.05;56.04;99723.38;3152659;28;20044;-67
2022/06/02 05:54:34;;;;;;;12.13;4.00;;;;;;;23.14;55.35;99727.75;3152862;28;20126;-71
2022/06/02 05:56:26;;;;;;;12.02;5.20;;;;;;;23.21;55.07;99728.81;3153104;28;20504;-70
2022/06/02 05:58:12;;;;;;;9.52;5.55;;;;;;;23.31;55.31;99734.06;3153139;28;20056;-73
2022/06/02 05:59:54;;;;;;;9.95;4.32;;;;;;;23.38;54.94;99735.13;3151466;28;20525;-72
2022/06/02 06:01:42;;;;;;;17.88;6.28;;;;;;;23.46;54.61;99734.34;3152770;28;20139;-73
2022/06/02 06:03:54;;;;;;;10.25;4.50;;;;;;;23.56;54.45;99732.44;3152935;28;20086;-71
2022/06/02 06:05:29;;;;;;;15.05;4.18;;;;;;;23.61;54.24;99736.31;3153293;28;20066;-75
2022/06/02 06:07:03;;;;;;;10.73;3.75;;;;;;;23.59;54.12;99724.97;3152690;28;20055;-72
2022/06/02 06:08:51;;;;;;;10.32;4.10;;;;;;;23.50;53.74;99691.34;3152930;28;20058;-72
2022/06/02 06:10:30;;;;;;;7.75;4.07;;;;;;;23.80;53.91;99729.97;3153132;28;20521;-71
2022/06/02 06:12:32;;;;;;;14.38;3.78;;;;;;;23.87;53.36;99727.53;3152941;28;20052;-73
2022/06/02 06:14:19;;;;;;;14.27;4.32;;;;;;;23.95;53.08;99732.88;3152724;28;20055;-74
2022/06/02 06:16:00;;;;;;;10.70;3.45;;;;;;;24.03;53.08;99732.13;3142171;28;20056;-76
2022/06/02 06:17:40;;;;;;;8.30;4.00;;;;;;;24.05;52.89;99727.47;3152816;28;20052;-70
2022/06/02 06:20:02;;;;;;;6.28;3.47;;;;;;;24.17;52.45;99723.56;3152893;28;20052;-71
2022/06/02 06:21:50;;;;;;;8.45;3.70;;;;;;;24.27;52.68;99726.09;3125910;28;20593;-70
2022/06/02 06:23:41;;;;;;;9.23;4.28;;;;;;;24.30;52.87;99721.28;3126112;28;20060;-70
2022/06/02 06:25:26;;;;;;;11.68;3.95;;;;;;;24.35;52.74;99718.16;3125596;28;20052;-71
2022/06/02 06:27:05;;;;;;;8.90;3.78;;;;;;;24.48;52.85;99733.69;3142318;28;20052;-69
2022/06/02 06:28:50;;;;;;;15.60;4.45;;;;;;;24.52;52.36;99716.38;3143880;28;20105;-71
2022/06/02 06:30:31;;;;;;;12.30;4.38;;;;;;;24.61;52.55;99727.91;3151821;28;20159;-69
2022/06/02 06:32:14;;;;;;;5.68;3.65;;;;;;;24.54;52.09;99701.09;3152697;28;20116;-69
2022/06/02 06:34:08;;;;;;;9.38;3.47;;;;;;;24.73;51.65;99716.81;3152791;28;20164;-71
2022/06/02 06:35:58;;;;;;;8.70;3.90;;;;;;;24.80;50.69;99711.66;3152481;28;20483;-73
2022/06/02 06:37:56;;;;;;;10.75;3.83;;;;;;;24.76;51.00;99707.66;3152120;28;20426;-72
2022/06/02 06:39:41;;;;;;;16.17;3.80;;;;;;;24.92;50.47;99709.53;3149712;28;20040;-71
2022/06/02 06:41:28;;;;;;;9.60;4.65;;;;;;;25.01;50.21;99715.69;3152640;28;20055;-73
2022/06/02 06:43:10;;;;;;;9.52;4.03;;;;;;;25.06;50.54;99714.22;3152859;28;20056;-72
2022/06/02 06:44:46;;;;;;;12.43;4.30;;;;;;;25.11;50.44;99709.22;3152486;28;20048;-70
2022/06/02 06:46:25;;;;;;;9.48;3.92;;;;;;;25.17;50.23;99713.06;3140132;28;20075;-72
2022/06/02 06:48:03;;;;;;;10.85;4.22;;;;;;;25.22;50.27;99713.41;3143640;28;20052;-70
2022/06/02 06:49:51;;;;;;;7.35;3.92;;;;;;;25.16;49.63;99696.25;3152407;28;20269;-72
2022/06/02 06:51:41;;;;;;;14.43;4.25;;;;;;;25.36;50.08;99710.09;3152713;28;20077;-70
2022/06/02 06:53:30;;;;;;;14.98;4.10;;;;;;;25.43;49.79;99713.72;3152597;28;20058;-71
2022/06/02 06:55:11;;;;;;;11.60;3.83;;;;;;;25.49;49.66;99704.25;3152474;28;20079;-75
2022/06/02 06:56:51;;;;;;;7.43;3.92;;;;;;;25.50;50.11;99691.75;3150201;28;20067;-73
2022/06/02 06:58:35;;;;;;;9.05;4.93;;;;;;;25.54;49.76;99685.09;3152704;28;20175;-75
2022/06/02 07:00:18;;;;;;;10.88;4.43;;;;;;;25.77;49.20;99707.38;3152211;28;20063;-74
2022/06/02 07:02:02;;;;;;;6.43;3.40;;;;;;;25.82;48.63;99701.56;3152556;28;20696;-73
2022/06/02 07:03:44;;;;;;;7.63;3.70;;;;;;;25.92;48.19;99712.06;3151666;28;20507;-71
2022/06/02 07:05:24;;;;;;;9.27;3.95;;;;;;;25.99;47.99;99716.53;3152389;28;20535;-74
2022/06/02 07:07:07;;;;;;;14.80;4.05;;;;;;;25.83;48.17;99682.72;3152393;28;20532;-68
2022/06/02 07:08:45;;;;;;;6.18;3.95;;;;;;;26.14;48.02;99708.63;3152302;28;20477;-74
2022/06/02 07:14:30;;;;;;;57.80;39.88;;;;;;;26.42;46.80;99714.38;3151860;28;20056;-64
2022/06/02 07:16:31;;;;;;;11.15;5.38;;;;;;;26.37;46.37;99695.38;3153563;28;20066;-68
2022/06/02 07:18:14;;;;;;;6.82;3.47;;;;;;;26.55;46.37;99720.00;3156982;28;20898;-68
2022/06/02 07:19:53;;;;;;;7.90;3.30;;;;;;;26.59;46.06;99708.97;3157542;28;20040;-68
2022/06/02 07:21:40;;;;;;;7.90;3.03;;;;;;;26.70;45.79;99716.59;3157273;28;20764;-67
2022/06/02 07:23:19;;;;;;;6.60;3.20;;;;;;;26.72;45.32;99710.09;3157608;28;20116;-67
2022/06/02 07:24:58;;;;;;;6.78;3.03;;;;;;;26.79;45.18;99715.53;3156398;28;20090;-68
2022/06/02 07:26:42;;;;;;;6.75;3.25;;;;;;;26.84;45.38;99710.50;3144931;28;20088;-67
2022/06/02 07:28:26;;;;;;;5.60;3.03;;;;;;;26.93;45.61;99711.28;3153678;28;20760;-64
2022/06/02 07:30:16;;;;;;;8.68;3.08;;;;;;;26.97;45.49;99718.75;3150049;28;20048;-67
2022/06/02 07:32:07;;;;;;;8.50;3.13;;;;;;;27.11;45.27;99719.03;3153270;28;20131;-68
2022/06/02 07:33:53;;;;;;;8.32;3.28;;;;;;;27.17;44.74;99718.34;3157780;28;20059;-69
2022/06/02 07:36:00;;;;;;;4.93;3.33;;;;;;;27.28;45.29;99728.63;3156727;28;20079;-69
2022/06/02 07:37:40;;;;;;;11.95;2.95;;;;;;;27.36;44.65;99727.69;3156410;28;20056;-70
2022/06/02 07:39:46;;;;;;;10.40;3.70;;;;;;;27.47;44.59;99719.25;3151987;28;20059;-71
2022/06/02 07:41:38;;;;;;;6.70;3.60;;;;;;;27.54;44.28;99720.22;3150142;28;20048;-69
2022/06/02 07:43:36;;;;;;;8.52;3.33;;;;;;;27.68;44.32;99719.38;3154542;28;20086;-69
2022/06/02 07:45:30;;;;;;;9.23;3.70;;;;;;;27.76;43.96;99717.66;3154174;28;20370;-68
2022/06/02 07:47:37;;;;;;;4.85;3.03;;;;;;;27.86;43.53;99715.56;3154387;28;20048;-67
2022/06/02 07:49:37;;;;;;;9.15;2.83;;;;;;;27.96;43.30;99718.81;3154604;28;20059;-70
2022/06/02 07:51:18;;;;;;;10.90;3.33;;;;;;;27.91;43.22;99697.13;3151774;28;20516;-65
2022/06/02 07:53:00;;;;;;;5.15;3.10;;;;;;;28.22;43.25;99722.88;3152915;28;20126;-67
2022/06/02 07:54:43;;;;;;;6.90;3.47;;;;;;;28.38;42.90;99720.00;3147093;28;20055;-67
2022/06/02 07:56:22;;;;;;;8.65;3.22;;;;;;;28.54;42.80;99724.34;3147099;28;20056;-68
2022/06/02 07:58:04;;;;;;;7.30;3.47;;;;;;;28.68;42.76;99717.31;3147770;28;20052;-63
2022/06/02 07:59:50;;;;;;;13.80;6.38;;;;;;;28.83;42.34;99718.09;3153217;28;20043;-62
2022/06/02 08:01:53;;;;;;;19.63;9.52;;;;;;;28.96;41.84;99714.75;3152287;28;20052;-62
2022/06/02 08:03:40;;;;;;;6.13;3.33;;;;;;;29.04;41.77;99706.56;3146897;28;20542;-67
2022/06/02 08:05:23;;;;;;;9.52;3.08;;;;;;;29.20;41.79;99717.06;3142378;28;20102;-69
2022/06/02 08:07:04;;;;;;;5.93;3.13;;;;;;;29.31;41.68;99718.38;3146446;28;20432;-67
2022/06/02 08:08:43;;;;;;;7.45;3.00;;;;;;;29.40;41.31;99717.25;3152038;28;20048;-67
2022/06/02 08:10:31;;;;;;;8.00;3.45;;;;;;;29.50;41.05;99714.22;3153876;28;20048;-67
2022/06/02 08:12:13;;;;;;;7.72;3.05;;;;;;;29.48;40.65;99690.25;3153222;28;20083;-69
2022/06/02 08:13:54;;;;;;;11.10;3.22;;;;;;;29.73;40.39;99707.78;3153380;28;20056;-68
2022/06/02 08:15:43;;;;;;;8.32;3.50;;;;;;;29.78;39.71;99708.88;3147619;28;20054;-68
2022/06/02 08:17:22;;;;;;;8.10;3.78;;;;;;;29.92;39.84;99707.94;3153547;28;20084;-73
2022/06/02 08:19:10;;;;;;;5.55;3.17;;;;;;;30.00;39.10;99701.59;3153455;28;20056;-68
2022/06/02 08:20:54;;;;;;;4.47;2.70;;;;;;;30.09;38.37;99707.63;3153534;28;20052;-69
2022/06/02 08:22:35;;;;;;;10.00;3.92;;;;;;;30.15;37.78;99707.66;3153286;28;20758;-68
2022/06/02 08:24:27;;;;;;;8.02;2.95;;;;;;;30.19;38.03;99688.47;3153650;28;20083;-67
2022/06/02 08:26:10;;;;;;;8.32;3.30;;;;;;;30.29;38.24;99694.31;3153862;28;20472;-69